sensor_id;sensor_type;location;lat;lon;timestamp;P1;P2;P0
57049;PMS7003;42935;50.966;16.992;2023-08-21T00:03:03;29;27;19
57049;PMS7003;42935;50.966;16.992;2023-08-21T00:06:25;27;27;19
57049;PMS7003;42935;50.966;16.992;2023-08-21T00:09:43;30;27;20
57049;PMS7003;42935;50.966;16.992;2023-08-21T00:13:07;29;27;20
57049;PMS7003;42935;50.966;16.992;2023-08-21T00:16:34;33;28;19
57049;PMS7003;42935;50.966;16.992;2023-08-21T00:19:56;30;26;18
57049;PMS7003;42935;50.966;16.992;2023-08-21T00:23:20;31;28;18
57049;PMS7003;42935;50.966;16.992;2023-08-21T00:26:48;38;30;20
57049;PMS7003;42935;50.966;16.992;2023-08-21T00:30:15;33;30;20
57049;PMS7003;42935;50.966;16.992;2023-08-21T00:33:36;31;27;19
57049;PMS7003;42935;50.966;16.992;2023-08-21T00:37:02;31;28;20
57049;PMS7003;42935;50.966;16.992;2023-08-21T00:40:23;31;29;20
57049;PMS7003;42935;50.966;16.992;2023-08-21T00:43:48;32;29;19
57049;PMS7003;42935;50.966;16.992;2023-08-21T00:47:09;32;28;19
57049;PMS7003;42935;50.966;16.992;2023-08-21T00:50:30;29;28;21
57049;PMS7003;42935;50.966;16.992;2023-08-21T00:53:56;28;27;19
57049;PMS7003;42935;50.966;16.992;2023-08-21T00:57:54;31;28;20
57049;PMS7003;42935;50.966;16.992;2023-08-21T01:01:17;31;30;21
57049;PMS7003;42935;50.966;16.992;2023-08-21T01:04:43;33;28;20
57049;PMS7003;42935;50.966;16.992;2023-08-21T01:08:14;32;30;20
57049;PMS7003;42935;50.966;16.992;2023-08-21T01:11:50;32;28;19
57049;PMS7003;42935;50.966;16.992;2023-08-21T01:15:25;29;26;18
57049;PMS7003;42935;50.966;16.992;2023-08-21T01:18:49;34;29;21
57049;PMS7003;42935;50.966;16.992;2023-08-21T01:22:08;36;32;22
57049;PMS7003;42935;50.966;16.992;2023-08-21T01:25:30;35;31;22
57049;PMS7003;42935;50.966;16.992;2023-08-21T01:28:47;35;30;20
57049;PMS7003;42935;50.966;16.992;2023-08-21T01:32:35;35;31;21
57049;PMS7003;42935;50.966;16.992;2023-08-21T01:35:47;35;30;20
57049;PMS7003;42935;50.966;16.992;2023-08-21T01:39:09;33;30;22
57049;PMS7003;42935;50.966;16.992;2023-08-21T01:43:05;37;31;20
57049;PMS7003;42935;50.966;16.992;2023-08-21T01:46:56;33;28;20
57049;PMS7003;42935;50.966;16.992;2023-08-21T01:50:19;37;30;21
57049;PMS7003;42935;50.966;16.992;2023-08-21T01:53:43;34;29;20
57049;PMS7003;42935;50.966;16.992;2023-08-21T01:57:48;39;32;22
57049;PMS7003;42935;50.966;16.992;2023-08-21T02:01:10;36;31;22
57049;PMS7003;42935;50.966;16.992;2023-08-21T02:04:31;36;33;22
57049;PMS7003;42935;50.966;16.992;2023-08-21T02:07:56;40;33;23
57049;PMS7003;42935;50.966;16.992;2023-08-21T02:11:15;36;31;21
57049;PMS7003;42935;50.966;16.992;2023-08-21T02:14:36;36;29;20
57049;PMS7003;42935;50.966;16.992;2023-08-21T02:18:02;40;33;23
57049;PMS7003;42935;50.966;16.992;2023-08-21T02:21:25;37;31;22
57049;PMS7003;42935;50.966;16.992;2023-08-21T02:24:50;37;32;22
57049;PMS7003;42935;50.966;16.992;2023-08-21T02:28:15;37;32;22
57049;PMS7003;42935;50.966;16.992;2023-08-21T02:31:41;38;32;21
57049;PMS7003;42935;50.966;16.992;2023-08-21T02:35:07;44;35;23
57049;PMS7003;42935;50.966;16.992;2023-08-21T02:38:30;41;34;22
57049;PMS7003;42935;50.966;16.992;2023-08-21T02:41:55;47;38;25
57049;PMS7003;42935;50.966;16.992;2023-08-21T02:45:21;49;38;26
57049;PMS7003;42935;50.966;16.992;2023-08-21T02:48:46;47;38;26
57049;PMS7003;42935;50.966;16.992;2023-08-21T02:52:08;45;37;25
57049;PMS7003;42935;50.966;16.992;2023-08-21T02:55:34;46;37;24
57049;PMS7003;42935;50.966;16.992;2023-08-21T02:59:05;40;33;23
57049;PMS7003;42935;50.966;16.992;2023-08-21T03:02:33;26;25;18
57049;PMS7003;42935;50.966;16.992;2023-08-21T03:06:04;28;23;15
57049;PMS7003;42935;50.966;16.992;2023-08-21T03:09:25;25;23;18
57049;PMS7003;42935;50.966;16.992;2023-08-21T03:12:46;23;20;15
57049;PMS7003;42935;50.966;16.992;2023-08-21T03:16:07;12;12;9
57049;PMS7003;42935;50.966;16.992;2023-08-21T03:19:23;15;15;10
57049;PMS7003;42935;50.966;16.992;2023-08-21T03:22:49;13;11;10
57049;PMS7003;42935;50.966;16.992;2023-08-21T03:26:14;15;14;11
57049;PMS7003;42935;50.966;16.992;2023-08-21T03:29:55;16;14;10
57049;PMS7003;42935;50.966;16.992;2023-08-21T03:33:23;12;12;9
57049;PMS7003;42935;50.966;16.992;2023-08-21T03:36:50;11;10;8
57049;PMS7003;42935;50.966;16.992;2023-08-21T03:40:14;13;12;9
57049;PMS7003;42935;50.966;16.992;2023-08-21T03:44:09;10;10;8
57049;PMS7003;42935;50.966;16.992;2023-08-21T03:47:33;12;9;7
57049;PMS7003;42935;50.966;16.992;2023-08-21T03:50:52;10;9;7
57049;PMS7003;42935;50.966;16.992;2023-08-21T03:54:44;9;9;7
57049;PMS7003;42935;50.966;16.992;2023-08-21T03:58:22;11;11;7
57049;PMS7003;42935;50.966;16.992;2023-08-21T04:01:50;8;7;5
57049;PMS7003;42935;50.966;16.992;2023-08-21T04:05:20;8;8;5
57049;PMS7003;42935;50.966;16.992;2023-08-21T04:08:46;10;9;6
57049;PMS7003;42935;50.966;16.992;2023-08-21T04:12:05;10;8;6
57049;PMS7003;42935;50.966;16.992;2023-08-21T04:15:28;12;8;6
57049;PMS7003;42935;50.966;16.992;2023-08-21T04:18:50;9;7;6
57049;PMS7003;42935;50.966;16.992;2023-08-21T04:22:08;11;8;6
57049;PMS7003;42935;50.966;16.992;2023-08-21T04:25:32;10;8;6
57049;PMS7003;42935;50.966;16.992;2023-08-21T04:28:51;12;10;7
57049;PMS7003;42935;50.966;16.992;2023-08-21T04:32:12;13;12;8
57049;PMS7003;42935;50.966;16.992;2023-08-21T04:35:37;18;15;11
57049;PMS7003;42935;50.966;16.992;2023-08-21T04:39:06;16;13;10
57049;PMS7003;42935;50.966;16.992;2023-08-21T04:42:25;17;17;13
57049;PMS7003;42935;50.966;16.992;2023-08-21T04:45:48;28;24;18
57049;PMS7003;42935;50.966;16.992;2023-08-21T04:49:16;29;26;19
57049;PMS7003;42935;50.966;16.992;2023-08-21T04:52:34;34;30;20
57049;PMS7003;42935;50.966;16.992;2023-08-21T04:55:58;38;33;22
57049;PMS7003;42935;50.966;16.992;2023-08-21T04:59:29;31;29;20
57049;PMS7003;42935;50.966;16.992;2023-08-21T05:03:31;29;27;19
57049;PMS7003;42935;50.966;16.992;2023-08-21T05:06:54;32;28;19
57049;PMS7003;42935;50.966;16.992;2023-08-21T05:10:22;32;30;20
57049;PMS7003;42935;50.966;16.992;2023-08-21T05:13:50;33;29;19
57049;PMS7003;42935;50.966;16.992;2023-08-21T05:17:14;29;27;19
57049;PMS7003;42935;50.966;16.992;2023-08-21T05:20:53;34;29;20
57049;PMS7003;42935;50.966;16.992;2023-08-21T05:24:44;31;27;19
57049;PMS7003;42935;50.966;16.992;2023-08-21T05:28:11;33;29;20
57049;PMS7003;42935;50.966;16.992;2023-08-21T05:31:33;29;27;20
57049;PMS7003;42935;50.966;16.992;2023-08-21T05:34:58;29;27;17
57049;PMS7003;42935;50.966;16.992;2023-08-21T05:38:20;27;26;18
57049;PMS7003;42935;50.966;16.992;2023-08-21T05:41:38;29;27;19
57049;PMS7003;42935;50.966;16.992;2023-08-21T05:45:02;28;27;18
57049;PMS7003;42935;50.966;16.992;2023-08-21T05:48:21;32;28;19
57049;PMS7003;42935;50.966;16.992;2023-08-21T05:51:42;30;28;19
57049;PMS7003;42935;50.966;16.992;2023-08-21T05:55:09;30;27;18
57049;PMS7003;42935;50.966;16.992;2023-08-21T05:58:34;33;29;19
57049;PMS7003;42935;50.966;16.992;2023-08-21T06:02:36;34;29;19
57049;PMS7003;42935;50.966;16.992;2023-08-21T06:06:05;29;28;19
57049;PMS7003;42935;50.966;16.992;2023-08-21T06:09:29;32;28;19
57049;PMS7003;42935;50.966;16.992;2023-08-21T06:12:53;35;31;21
57049;PMS7003;42935;50.966;16.992;2023-08-21T06:16:17;35;31;21
57049;PMS7003;42935;50.966;16.992;2023-08-21T06:19:36;38;33;22
57049;PMS7003;42935;50.966;16.992;2023-08-21T06:23:29;42;33;22
57049;PMS7003;42935;50.966;16.992;2023-08-21T06:26:56;40;34;22
57049;PMS7003;42935;50.966;16.992;2023-08-21T06:30:18;41;32;21
57049;PMS7003;42935;50.966;16.992;2023-08-21T06:33:43;40;33;22
57049;PMS7003;42935;50.966;16.992;2023-08-21T06:37:00;35;32;21
57049;PMS7003;42935;50.966;16.992;2023-08-21T06:40:30;40;31;21
57049;PMS7003;42935;50.966;16.992;2023-08-21T06:43:59;41;34;22
57049;PMS7003;42935;50.966;16.992;2023-08-21T06:47:24;39;31;20
57049;PMS7003;42935;50.966;16.992;2023-08-21T06:50:51;40;33;22
57049;PMS7003;42935;50.966;16.992;2023-08-21T06:54:17;40;31;21
57049;PMS7003;42935;50.966;16.992;2023-08-21T06:57:47;39;32;21
57049;PMS7003;42935;50.966;16.992;2023-08-21T07:01:07;44;33;23
57049;PMS7003;42935;50.966;16.992;2023-08-21T07:04:28;36;32;21
57049;PMS7003;42935;50.966;16.992;2023-08-21T07:07:51;30;28;19
57049;PMS7003;42935;50.966;16.992;2023-08-21T07:11:20;31;27;18
57049;PMS7003;42935;50.966;16.992;2023-08-21T07:14:45;20;19;15
57049;PMS7003;42935;50.966;16.992;2023-08-21T07:18:08;15;13;10
57049;PMS7003;42935;50.966;16.992;2023-08-21T07:21:30;15;13;10
57049;PMS7003;42935;50.966;16.992;2023-08-21T07:24:52;13;12;9
57049;PMS7003;42935;50.966;16.992;2023-08-21T07:28:14;12;11;8
57049;PMS7003;42935;50.966;16.992;2023-08-21T07:31:34;14;13;10
57049;PMS7003;42935;50.966;16.992;2023-08-21T07:35:25;11;10;8
57049;PMS7003;42935;50.966;16.992;2023-08-21T07:39:17;10;9;7
57049;PMS7003;42935;50.966;16.992;2023-08-21T07:42:41;12;11;8
57049;PMS7003;42935;50.966;16.992;2023-08-21T07:49:36;8;8;8
57049;PMS7003;42935;50.966;16.992;2023-08-21T07:52:53;11;10;7
57049;PMS7003;42935;50.966;16.992;2023-08-21T07:56:10;14;12;9
57049;PMS7003;42935;50.966;16.992;2023-08-21T07:59:33;11;11;8
57049;PMS7003;42935;50.966;16.992;2023-08-21T08:02:57;15;12;9
57049;PMS7003;42935;50.966;16.992;2023-08-21T08:06:18;13;11;9
57049;PMS7003;42935;50.966;16.992;2023-08-21T08:10:13;13;11;9
57049;PMS7003;42935;50.966;16.992;2023-08-21T08:13:32;12;12;9
57049;PMS7003;42935;50.966;16.992;2023-08-21T08:17:24;13;11;9
57049;PMS7003;42935;50.966;16.992;2023-08-21T08:20:44;12;12;9
57049;PMS7003;42935;50.966;16.992;2023-08-21T08:24:33;11;10;8
57049;PMS7003;42935;50.966;16.992;2023-08-21T08:27:54;12;11;8
57049;PMS7003;42935;50.966;16.992;2023-08-21T08:31:18;12;11;9
57049;PMS7003;42935;50.966;16.992;2023-08-21T08:34:44;12;10;7
57049;PMS7003;42935;50.966;16.992;2023-08-21T08:38:04;11;10;8
57049;PMS7003;42935;50.966;16.992;2023-08-21T08:44:58;12;10;8
57049;PMS7003;42935;50.966;16.992;2023-08-21T08:48:31;13;10;8
57049;PMS7003;42935;50.966;16.992;2023-08-21T08:51:54;11;11;9
57049;PMS7003;42935;50.966;16.992;2023-08-21T08:55:16;9;9;7
57049;PMS7003;42935;50.966;16.992;2023-08-21T08:58:44;10;9;7
57049;PMS7003;42935;50.966;16.992;2023-08-21T09:02:07;11;10;7
57049;PMS7003;42935;50.966;16.992;2023-08-21T09:05:28;12;11;9
57049;PMS7003;42935;50.966;16.992;2023-08-21T09:12:16;11;9;7
57049;PMS7003;42935;50.966;16.992;2023-08-21T09:15:36;11;10;8
57049;PMS7003;42935;50.966;16.992;2023-08-21T09:19:02;10;9;6
57049;PMS7003;42935;50.966;16.992;2023-08-21T09:22:23;11;10;8
57049;PMS7003;42935;50.966;16.992;2023-08-21T09:25:45;11;11;9
57049;PMS7003;42935;50.966;16.992;2023-08-21T09:29:06;12;11;8
57049;PMS7003;42935;50.966;16.992;2023-08-21T09:32:25;10;9;7
57049;PMS7003;42935;50.966;16.992;2023-08-21T09:35:57;11;10;8
57049;PMS7003;42935;50.966;16.992;2023-08-21T09:39:16;12;10;7
57049;PMS7003;42935;50.966;16.992;2023-08-21T09:42:39;12;10;8
57049;PMS7003;42935;50.966;16.992;2023-08-21T09:46:35;11;9;8
57049;PMS7003;42935;50.966;16.992;2023-08-21T09:49:54;11;9;7
57049;PMS7003;42935;50.966;16.992;2023-08-21T09:53:15;10;10;7
57049;PMS7003;42935;50.966;16.992;2023-08-21T09:57:13;13;11;8
57049;PMS7003;42935;50.966;16.992;2023-08-21T10:00:39;11;11;8
57049;PMS7003;42935;50.966;16.992;2023-08-21T10:04:02;11;11;9
57049;PMS7003;42935;50.966;16.992;2023-08-21T10:07:31;11;11;7
57049;PMS7003;42935;50.966;16.992;2023-08-21T10:10:54;13;11;8
57049;PMS7003;42935;50.966;16.992;2023-08-21T10:14:15;9;8;7
57049;PMS7003;42935;50.966;16.992;2023-08-21T10:17:37;10;9;7
57049;PMS7003;42935;50.966;16.992;2023-08-21T10:20:58;11;11;8
57049;PMS7003;42935;50.966;16.992;2023-08-21T10:24:28;11;11;9
57049;PMS7003;42935;50.966;16.992;2023-08-21T10:27:57;11;10;8
57049;PMS7003;42935;50.966;16.992;2023-08-21T10:31:28;11;10;7
57049;PMS7003;42935;50.966;16.992;2023-08-21T10:34:59;13;12;10
57049;PMS7003;42935;50.966;16.992;2023-08-21T10:38:25;12;12;9
57049;PMS7003;42935;50.966;16.992;2023-08-21T10:42:43;13;11;9
57049;PMS7003;42935;50.966;16.992;2023-08-21T10:45:54;13;12;10
57049;PMS7003;42935;50.966;16.992;2023-08-21T10:49:14;12;11;9
57049;PMS7003;42935;50.966;16.992;2023-08-21T10:52:39;13;11;9
57049;PMS7003;42935;50.966;16.992;2023-08-21T10:56:04;12;11;9
57049;PMS7003;42935;50.966;16.992;2023-08-21T10:59:26;12;11;8
57049;PMS7003;42935;50.966;16.992;2023-08-21T11:03:18;13;12;9
57049;PMS7003;42935;50.966;16.992;2023-08-21T11:06:38;12;9;7
57049;PMS7003;42935;50.966;16.992;2023-08-21T11:09:59;10;9;7
57049;PMS7003;42935;50.966;16.992;2023-08-21T11:13:25;11;10;8
57049;PMS7003;42935;50.966;16.992;2023-08-21T11:16:50;10;9;7
57049;PMS7003;42935;50.966;16.992;2023-08-21T11:20:12;12;11;8
57049;PMS7003;42935;50.966;16.992;2023-08-21T11:23:40;11;11;9
57049;PMS7003;42935;50.966;16.992;2023-08-21T11:27:00;10;10;8
57049;PMS7003;42935;50.966;16.992;2023-08-21T11:30:24;11;10;7
57049;PMS7003;42935;50.966;16.992;2023-08-21T11:33:50;12;9;8
57049;PMS7003;42935;50.966;16.992;2023-08-21T11:37:10;9;9;7
57049;PMS7003;42935;50.966;16.992;2023-08-21T11:40:27;10;9;7
57049;PMS7003;42935;50.966;16.992;2023-08-21T11:43:49;10;9;7
57049;PMS7003;42935;50.966;16.992;2023-08-21T11:47:10;8;8;6
57049;PMS7003;42935;50.966;16.992;2023-08-21T11:50:36;8;8;7
57049;PMS7003;42935;50.966;16.992;2023-08-21T11:54:01;12;10;8
57049;PMS7003;42935;50.966;16.992;2023-08-21T11:57:34;13;9;7
57049;PMS7003;42935;50.966;16.992;2023-08-21T12:04:24;12;9;7
57049;PMS7003;42935;50.966;16.992;2023-08-21T12:07:50;11;9;7
57049;PMS7003;42935;50.966;16.992;2023-08-21T12:11:12;9;8;6
57049;PMS7003;42935;50.966;16.992;2023-08-21T12:14:45;9;9;7
57049;PMS7003;42935;50.966;16.992;2023-08-21T12:18:07;8;7;6
57049;PMS7003;42935;50.966;16.992;2023-08-21T12:21:29;10;10;7
57049;PMS7003;42935;50.966;16.992;2023-08-21T12:25:20;9;9;7
57049;PMS7003;42935;50.966;16.992;2023-08-21T12:28:49;8;7;6
57049;PMS7003;42935;50.966;16.992;2023-08-21T12:32:12;8;7;5
57049;PMS7003;42935;50.966;16.992;2023-08-21T12:35:33;9;8;5
57049;PMS7003;42935;50.966;16.992;2023-08-21T12:38:54;7;7;6
57049;PMS7003;42935;50.966;16.992;2023-08-21T12:42:14;7;7;5
57049;PMS7003;42935;50.966;16.992;2023-08-21T12:45:36;7;7;5
57049;PMS7003;42935;50.966;16.992;2023-08-21T12:49:00;10;7;6
57049;PMS7003;42935;50.966;16.992;2023-08-21T12:52:22;9;8;6
57049;PMS7003;42935;50.966;16.992;2023-08-21T12:55:44;7;7;6
57049;PMS7003;42935;50.966;16.992;2023-08-21T12:59:05;8;8;6
57049;PMS7003;42935;50.966;16.992;2023-08-21T13:02:29;9;8;6
57049;PMS7003;42935;50.966;16.992;2023-08-21T13:05:50;9;8;6
57049;PMS7003;42935;50.966;16.992;2023-08-21T13:09:47;8;8;6
57049;PMS7003;42935;50.966;16.992;2023-08-21T13:13:11;12;10;7
57049;PMS7003;42935;50.966;16.992;2023-08-21T13:16:40;10;9;7
57049;PMS7003;42935;50.966;16.992;2023-08-21T13:20:03;8;8;7
57049;PMS7003;42935;50.966;16.992;2023-08-21T13:23:28;9;8;7
57049;PMS7003;42935;50.966;16.992;2023-08-21T13:26:56;9;8;6
57049;PMS7003;42935;50.966;16.992;2023-08-21T13:30:22;11;9;7
57049;PMS7003;42935;50.966;16.992;2023-08-21T13:33:53;8;8;6
57049;PMS7003;42935;50.966;16.992;2023-08-21T13:37:56;11;9;7
57049;PMS7003;42935;50.966;16.992;2023-08-21T13:41:17;9;8;7
57049;PMS7003;42935;50.966;16.992;2023-08-21T13:44:42;10;8;6
57049;PMS7003;42935;50.966;16.992;2023-08-21T13:48:12;8;7;5
57049;PMS7003;42935;50.966;16.992;2023-08-21T13:51:34;8;7;6
57049;PMS7003;42935;50.966;16.992;2023-08-21T13:54:57;7;7;6
57049;PMS7003;42935;50.966;16.992;2023-08-21T13:58:15;8;8;7
57049;PMS7003;42935;50.966;16.992;2023-08-21T14:01:48;8;8;7
57049;PMS7003;42935;50.966;16.992;2023-08-21T14:05:18;8;8;7
57049;PMS7003;42935;50.966;16.992;2023-08-21T14:08:39;8;8;6
57049;PMS7003;42935;50.966;16.992;2023-08-21T14:12:06;8;8;7
57049;PMS7003;42935;50.966;16.992;2023-08-21T14:15:58;9;7;5
57049;PMS7003;42935;50.966;16.992;2023-08-21T14:19:21;9;7;6
57049;PMS7003;42935;50.966;16.992;2023-08-21T14:22:48;8;7;5
57049;PMS7003;42935;50.966;16.992;2023-08-21T14:26:38;7;6;5
57049;PMS7003;42935;50.966;16.992;2023-08-21T14:29:58;9;7;5
57049;PMS7003;42935;50.966;16.992;2023-08-21T14:33:22;7;7;6
57049;PMS7003;42935;50.966;16.992;2023-08-21T14:36:50;7;6;6
57049;PMS7003;42935;50.966;16.992;2023-08-21T14:40:22;7;5;4
57049;PMS7003;42935;50.966;16.992;2023-08-21T14:44:01;8;7;6
57049;PMS7003;42935;50.966;16.992;2023-08-21T14:47:35;7;6;5
57049;PMS7003;42935;50.966;16.992;2023-08-21T14:51:30;7;7;5
57049;PMS7003;42935;50.966;16.992;2023-08-21T14:54:57;7;6;5
57049;PMS7003;42935;50.966;16.992;2023-08-21T14:58:38;8;5;4
57049;PMS7003;42935;50.966;16.992;2023-08-21T15:02:07;7;6;5
57049;PMS7003;42935;50.966;16.992;2023-08-21T15:05:52;7;5;4
57049;PMS7003;42935;50.966;16.992;2023-08-21T15:09:43;6;6;5
57049;PMS7003;42935;50.966;16.992;2023-08-21T15:13:13;6;6;5
57049;PMS7003;42935;50.966;16.992;2023-08-21T15:17:09;5;5;4
57049;PMS7003;42935;50.966;16.992;2023-08-21T15:20:39;6;6;5
57049;PMS7003;42935;50.966;16.992;2023-08-21T15:24:23;6;5;4
57049;PMS7003;42935;50.966;16.992;2023-08-21T15:27:57;5;5;4
57049;PMS7003;42935;50.966;16.992;2023-08-21T15:31:32;6;5;5
57049;PMS7003;42935;50.966;16.992;2023-08-21T15:35:26;6;6;4
57049;PMS7003;42935;50.966;16.992;2023-08-21T15:38:57;8;6;5
57049;PMS7003;42935;50.966;16.992;2023-08-21T15:42:18;8;7;6
57049;PMS7003;42935;50.966;16.992;2023-08-21T15:45:40;8;7;5
57049;PMS7003;42935;50.966;16.992;2023-08-21T15:49:04;6;6;5
57049;PMS7003;42935;50.966;16.992;2023-08-21T15:53:07;9;8;6
57049;PMS7003;42935;50.966;16.992;2023-08-21T15:57:00;6;4;4
57049;PMS7003;42935;50.966;16.992;2023-08-21T16:00:28;6;5;5
57049;PMS7003;42935;50.966;16.992;2023-08-21T16:03:59;6;6;5
57049;PMS7003;42935;50.966;16.992;2023-08-21T16:07:59;7;7;5
57049;PMS7003;42935;50.966;16.992;2023-08-21T16:11:24;6;6;4
57049;PMS7003;42935;50.966;16.992;2023-08-21T16:14:41;6;6;5
57049;PMS7003;42935;50.966;16.992;2023-08-21T16:18:44;11;9;6
57049;PMS7003;42935;50.966;16.992;2023-08-21T16:22:07;10;7;6
57049;PMS7003;42935;50.966;16.992;2023-08-21T16:25:31;9;8;7
57049;PMS7003;42935;50.966;16.992;2023-08-21T16:28:59;9;8;6
57049;PMS7003;42935;50.966;16.992;2023-08-21T16:32:25;10;9;7
57049;PMS7003;42935;50.966;16.992;2023-08-21T16:35:47;9;8;7
57049;PMS7003;42935;50.966;16.992;2023-08-21T16:39:20;9;8;6
57049;PMS7003;42935;50.966;16.992;2023-08-21T16:42:51;8;7;6
57049;PMS7003;42935;50.966;16.992;2023-08-21T16:46:14;8;7;6
57049;PMS7003;42935;50.966;16.992;2023-08-21T16:49:35;9;8;6
57049;PMS7003;42935;50.966;16.992;2023-08-21T16:53:07;8;8;6
57049;PMS7003;42935;50.966;16.992;2023-08-21T16:56:24;11;8;7
57049;PMS7003;42935;50.966;16.992;2023-08-21T16:59:45;6;6;5
57049;PMS7003;42935;50.966;16.992;2023-08-21T17:03:09;7;7;5
57049;PMS7003;42935;50.966;16.992;2023-08-21T17:06:34;8;7;6
57049;PMS7003;42935;50.966;16.992;2023-08-21T17:10:28;7;7;6
57049;PMS7003;42935;50.966;16.992;2023-08-21T17:13:50;9;8;7
57049;PMS7003;42935;50.966;16.992;2023-08-21T17:17:08;12;10;7
57049;PMS7003;42935;50.966;16.992;2023-08-21T17:21:01;9;8;6
57049;PMS7003;42935;50.966;16.992;2023-08-21T17:24:19;8;6;5
57049;PMS7003;42935;50.966;16.992;2023-08-21T17:27:40;10;8;7
57049;PMS7003;42935;50.966;16.992;2023-08-21T17:31:04;7;7;6
57049;PMS7003;42935;50.966;16.992;2023-08-21T17:34:25;8;8;6
57049;PMS7003;42935;50.966;16.992;2023-08-21T17:37:48;7;6;5
57049;PMS7003;42935;50.966;16.992;2023-08-21T17:41:27;8;7;6
57049;PMS7003;42935;50.966;16.992;2023-08-21T17:44:56;7;6;5
57049;PMS7003;42935;50.966;16.992;2023-08-21T17:48:30;9;7;6
57049;PMS7003;42935;50.966;16.992;2023-08-21T17:52:29;7;7;6
57049;PMS7003;42935;50.966;16.992;2023-08-21T17:56:00;7;6;5
57049;PMS7003;42935;50.966;16.992;2023-08-21T17:59:28;8;7;6
57049;PMS7003;42935;50.966;16.992;2023-08-21T18:02:50;7;7;6
57049;PMS7003;42935;50.966;16.992;2023-08-21T18:06:48;8;7;6
57049;PMS7003;42935;50.966;16.992;2023-08-21T18:10:20;6;6;5
57049;PMS7003;42935;50.966;16.992;2023-08-21T18:13:43;8;7;6
57049;PMS7003;42935;50.966;16.992;2023-08-21T18:17:09;7;6;5
57049;PMS7003;42935;50.966;16.992;2023-08-21T18:24:09;7;6;5
57049;PMS7003;42935;50.966;16.992;2023-08-21T18:27:33;9;7;6
57049;PMS7003;42935;50.966;16.992;2023-08-21T18:30:59;10;9;6
57049;PMS7003;42935;50.966;16.992;2023-08-21T18:34:29;12;10;8
57049;PMS7003;42935;50.966;16.992;2023-08-21T18:37:57;13;12;8
57049;PMS7003;42935;50.966;16.992;2023-08-21T18:41:25;15;13;10
57049;PMS7003;42935;50.966;16.992;2023-08-21T18:44:53;18;14;10
57049;PMS7003;42935;50.966;16.992;2023-08-21T18:48:19;16;14;10
57049;PMS7003;42935;50.966;16.992;2023-08-21T18:51:45;26;17;11
57049;PMS7003;42935;50.966;16.992;2023-08-21T18:55:12;20;16;10
57049;PMS7003;42935;50.966;16.992;2023-08-21T18:58:46;11;9;7
57049;PMS7003;42935;50.966;16.992;2023-08-21T19:02:16;11;10;7
57049;PMS7003;42935;50.966;16.992;2023-08-21T19:05:41;10;9;7
57049;PMS7003;42935;50.966;16.992;2023-08-21T19:09:07;9;8;6
57049;PMS7003;42935;50.966;16.992;2023-08-21T19:12:34;10;8;6
57049;PMS7003;42935;50.966;16.992;2023-08-21T19:16:01;10;7;6
57049;PMS7003;42935;50.966;16.992;2023-08-21T19:19:28;11;9;7
57049;PMS7003;42935;50.966;16.992;2023-08-21T19:22:58;10;8;6
57049;PMS7003;42935;50.966;16.992;2023-08-21T19:26:25;11;10;8
57049;PMS7003;42935;50.966;16.992;2023-08-21T19:29:51;8;8;6
57049;PMS7003;42935;50.966;16.992;2023-08-21T19:33:24;9;8;6
57049;PMS7003;42935;50.966;16.992;2023-08-21T19:36:50;7;7;6
57049;PMS7003;42935;50.966;16.992;2023-08-21T19:40:16;9;9;8
57049;PMS7003;42935;50.966;16.992;2023-08-21T19:43:44;10;8;7
57049;PMS7003;42935;50.966;16.992;2023-08-21T19:47:06;10;9;7
57049;PMS7003;42935;50.966;16.992;2023-08-21T19:50:28;9;9;7
57049;PMS7003;42935;50.966;16.992;2023-08-21T19:53:53;8;8;6
57049;PMS7003;42935;50.966;16.992;2023-08-21T19:57:19;9;8;7
57049;PMS7003;42935;50.966;16.992;2023-08-21T20:00:44;10;10;8
57049;PMS7003;42935;50.966;16.992;2023-08-21T20:04:09;10;9;8
57049;PMS7003;42935;50.966;16.992;2023-08-21T20:07:32;10;9;7
57049;PMS7003;42935;50.966;16.992;2023-08-21T20:11:02;11;9;9
57049;PMS7003;42935;50.966;16.992;2023-08-21T20:14:27;10;10;8
57049;PMS7003;42935;50.966;16.992;2023-08-21T20:17:54;12;10;8
57049;PMS7003;42935;50.966;16.992;2023-08-21T20:21:23;12;9;7
57049;PMS7003;42935;50.966;16.992;2023-08-21T20:24:52;9;8;7
57049;PMS7003;42935;50.966;16.992;2023-08-21T20:28:19;11;9;7
57049;PMS7003;42935;50.966;16.992;2023-08-21T20:31:44;11;9;8
57049;PMS7003;42935;50.966;16.992;2023-08-21T20:35:09;11;11;9
57049;PMS7003;42935;50.966;16.992;2023-08-21T20:38:33;13;11;9
57049;PMS7003;42935;50.966;16.992;2023-08-21T20:41:59;12;11;9
57049;PMS7003;42935;50.966;16.992;2023-08-21T20:45:29;13;12;10
57049;PMS7003;42935;50.966;16.992;2023-08-21T20:48:56;11;10;8
57049;PMS7003;42935;50.966;16.992;2023-08-21T20:52:21;13;10;9
57049;PMS7003;42935;50.966;16.992;2023-08-21T20:55:46;14;12;10
57049;PMS7003;42935;50.966;16.992;2023-08-21T20:59:11;11;10;8
57049;PMS7003;42935;50.966;16.992;2023-08-21T21:02:44;11;11;8
57049;PMS7003;42935;50.966;16.992;2023-08-21T21:06:11;17;12;9
57049;PMS7003;42935;50.966;16.992;2023-08-21T21:09:40;13;12;9
57049;PMS7003;42935;50.966;16.992;2023-08-21T21:13:03;14;11;9
57049;PMS7003;42935;50.966;16.992;2023-08-21T21:16:26;11;11;9
57049;PMS7003;42935;50.966;16.992;2023-08-21T21:19:52;12;11;9
57049;PMS7003;42935;50.966;16.992;2023-08-21T21:23:18;13;12;9
57049;PMS7003;42935;50.966;16.992;2023-08-21T21:26:41;11;11;8
57049;PMS7003;42935;50.966;16.992;2023-08-21T21:30:07;12;11;8
57049;PMS7003;42935;50.966;16.992;2023-08-21T21:33:36;13;12;9
57049;PMS7003;42935;50.966;16.992;2023-08-21T21:36:55;12;11;9
57049;PMS7003;42935;50.966;16.992;2023-08-21T21:40:20;12;11;9
57049;PMS7003;42935;50.966;16.992;2023-08-21T21:43:43;11;11;10
57049;PMS7003;42935;50.966;16.992;2023-08-21T21:47:04;12;11;9
57049;PMS7003;42935;50.966;16.992;2023-08-21T21:50:26;13;11;8
57049;PMS7003;42935;50.966;16.992;2023-08-21T21:53:56;15;13;9
57049;PMS7003;42935;50.966;16.992;2023-08-21T21:57:50;12;11;9
57049;PMS7003;42935;50.966;16.992;2023-08-21T22:01:13;15;13;10
57049;PMS7003;42935;50.966;16.992;2023-08-21T22:04:39;14;12;10
57049;PMS7003;42935;50.966;16.992;2023-08-21T22:08:04;14;14;11
57049;PMS7003;42935;50.966;16.992;2023-08-21T22:11:28;17;14;12
57049;PMS7003;42935;50.966;16.992;2023-08-21T22:14:50;20;13;11
57049;PMS7003;42935;50.966;16.992;2023-08-21T22:18:10;15;13;11
57049;PMS7003;42935;50.966;16.992;2023-08-21T22:21:35;13;12;9
57049;PMS7003;42935;50.966;16.992;2023-08-21T22:25:01;16;14;10
57049;PMS7003;42935;50.966;16.992;2023-08-21T22:28:24;15;13;9
57049;PMS7003;42935;50.966;16.992;2023-08-21T22:31:47;16;14;11
57049;PMS7003;42935;50.966;16.992;2023-08-21T22:35:09;14;12;9
57049;PMS7003;42935;50.966;16.992;2023-08-21T22:38:33;12;12;9
57049;PMS7003;42935;50.966;16.992;2023-08-21T22:41:51;13;13;10